createdAt,value
2018-08-31T00:00:45.977Z,13.23
2018-08-31T00:03:14.844Z,14.40
2018-08-31T00:05:50.010Z,13.73
2018-08-31T00:08:56.781Z,19.93
2018-08-31T00:13:38.199Z,14.33
2018-08-31T00:16:06.595Z,14.07
2018-08-31T00:18:34.518Z,16.10
2018-08-31T00:21:02.591Z,19.50
2018-08-31T00:23:35.973Z,18.83
2018-08-31T00:26:17.049Z,15.53
2018-08-31T00:28:51.223Z,13.13
2018-08-31T00:31:24.648Z,13.93
2018-08-31T00:34:06.989Z,16.03
2018-08-31T00:36:43.673Z,15.80
2018-08-31T00:39:16.845Z,13.37
2018-08-31T00:43:52.447Z,12.63
2018-08-31T00:46:20.306Z,12.60
2018-08-31T00:48:50.863Z,11.30
2018-08-31T00:51:18.855Z,13.83
2018-08-31T00:53:46.857Z,14.97
2018-08-31T00:56:15.643Z,13.97
2018-08-31T00:58:43.532Z,22.53
2018-08-31T01:01:11.443Z,46.80
2018-08-31T01:03:39.370Z,16.97
2018-08-31T01:06:07.395Z,16.67
2018-08-31T01:08:35.450Z,16.30
2018-08-31T01:11:03.427Z,16.27
2018-08-31T01:13:31.630Z,14.20
2018-08-31T01:15:59.584Z,13.20
2018-08-31T01:18:27.590Z,15.67
2018-08-31T01:20:55.680Z,15.90
2018-08-31T01:23:25.251Z,14.87
2018-08-31T01:25:53.150Z,17.20
2018-08-31T01:28:21.090Z,12.37
2018-08-31T01:30:49.077Z,16.17
2018-08-31T01:33:17.082Z,12.27
2018-08-31T01:35:44.968Z,15.07
2018-08-31T01:38:13.039Z,15.27
2018-08-31T01:40:40.978Z,12.10
2018-08-31T01:43:08.992Z,12.63
2018-08-31T01:45:36.923Z,15.13
2018-08-31T01:48:04.922Z,13.03
2018-08-31T01:50:32.830Z,13.23
2018-08-31T01:53:00.858Z,10.70
2018-08-31T01:55:30.674Z,12.63
2018-08-31T01:57:59.062Z,13.57
2018-08-31T02:00:26.975Z,13.00
2018-08-31T02:02:54.968Z,12.90
2018-08-31T02:05:23.047Z,11.13
2018-08-31T02:07:50.948Z,10.17
2018-08-31T02:10:19.774Z,11.47
2018-08-31T02:12:47.703Z,15.23
2018-08-31T02:15:15.703Z,9.90
2018-08-31T02:17:43.629Z,11.93
2018-08-31T02:20:12.548Z,11.40
2018-08-31T02:22:40.589Z,8.80
2018-08-31T02:25:09.457Z,12.67
2018-08-31T02:27:37.532Z,14.67
2018-08-31T02:30:05.421Z,11.33
2018-08-31T02:32:33.316Z,12.53
2018-08-31T02:35:01.166Z,10.43
2018-08-31T02:37:29.226Z,11.03
2018-08-31T02:39:57.095Z,11.67
2018-08-31T02:42:24.967Z,8.97
2018-08-31T02:44:52.833Z,12.60
2018-08-31T02:47:20.898Z,10.03
2018-08-31T02:49:48.752Z,9.83
2018-08-31T02:52:16.667Z,12.27
2018-08-31T02:54:44.553Z,10.33
2018-08-31T02:57:12.460Z,9.57
2018-08-31T02:59:40.305Z,10.60
2018-08-31T03:02:08.209Z,9.87
2018-08-31T03:04:36.387Z,11.70
2018-08-31T03:07:04.428Z,11.57
2018-08-31T03:09:32.297Z,11.47
2018-08-31T03:12:00.173Z,13.80
2018-08-31T03:14:28.228Z,10.57
2018-08-31T03:16:56.109Z,14.37
2018-08-31T03:19:24.175Z,10.33
2018-08-31T03:21:52.133Z,11.30
2018-08-31T03:24:20.053Z,12.27
2018-08-31T03:26:47.924Z,9.63
2018-08-31T03:29:15.806Z,11.43
2018-08-31T03:31:43.898Z,11.77
2018-08-31T03:34:11.768Z,12.30
2018-08-31T03:36:39.637Z,13.27
2018-08-31T03:39:08.099Z,11.33
2018-08-31T03:41:36.618Z,11.23
2018-08-31T03:44:05.512Z,11.40
2018-08-31T03:46:33.491Z,12.47
2018-08-31T03:49:01.405Z,13.93
2018-08-31T03:51:29.331Z,13.03
2018-08-31T03:53:57.219Z,14.77
2018-08-31T03:56:25.101Z,13.47
2018-08-31T03:58:52.986Z,13.20
2018-08-31T04:01:20.857Z,12.93
2018-08-31T04:03:49.414Z,13.80
2018-08-31T04:06:17.266Z,13.83
2018-08-31T04:08:45.379Z,15.03
2018-08-31T04:11:13.436Z,19.63
2018-08-31T04:13:41.473Z,15.20
2018-08-31T04:16:09.569Z,15.27
2018-08-31T04:18:37.468Z,13.50
2018-08-31T04:21:05.497Z,14.13
2018-08-31T04:23:33.563Z,13.90
2018-08-31T04:26:01.387Z,13.30
2018-08-31T04:28:29.573Z,15.00
2018-08-31T04:30:57.541Z,11.97
2018-08-31T04:33:25.452Z,15.97
2018-08-31T04:35:53.328Z,12.63
2018-08-31T04:38:21.229Z,15.00
2018-08-31T04:40:49.133Z,13.43
2018-08-31T04:43:18.417Z,15.17
2018-08-31T04:45:47.449Z,18.93
2018-08-31T04:48:15.367Z,18.00
2018-08-31T04:50:43.292Z,14.07
2018-08-31T04:53:11.251Z,16.50
2018-08-31T04:55:39.107Z,14.60
2018-08-31T04:58:07.017Z,13.70
2018-08-31T05:00:35.118Z,18.70
2018-08-31T05:03:03.154Z,17.60
2018-08-31T05:05:31.178Z,15.60
2018-08-31T05:07:59.313Z,17.33
2018-08-31T05:10:28.116Z,19.07
2018-08-31T05:12:56.898Z,26.90
2018-08-31T05:15:25.574Z,20.70
2018-08-31T05:17:53.595Z,22.47
2018-08-31T05:20:21.766Z,19.37
2018-08-31T05:22:50.002Z,29.53
2018-08-31T05:25:18.822Z,23.13
2018-08-31T05:27:46.996Z,20.20
2018-08-31T05:30:15.813Z,24.80
2018-08-31T05:32:43.763Z,18.00
2018-08-31T05:35:11.734Z,27.20
2018-08-31T05:37:40.465Z,25.20
2018-08-31T05:40:08.362Z,31.13
2018-08-31T05:42:36.334Z,21.00
2018-08-31T05:45:04.234Z,22.83
2018-08-31T05:47:32.151Z,19.03
2018-08-31T05:50:00.116Z,19.73
2018-08-31T05:52:28.046Z,21.70
2018-08-31T05:54:55.996Z,20.80
2018-08-31T05:57:23.910Z,23.53
2018-08-31T05:59:51.822Z,36.53
2018-08-31T06:02:20.012Z,32.90
2018-08-31T06:04:47.976Z,31.83
2018-08-31T06:07:15.860Z,42.23
2018-08-31T06:09:43.879Z,28.03
2018-08-31T06:12:14.520Z,25.43
2018-08-31T06:14:43.844Z,21.73
2018-08-31T06:17:11.852Z,25.80
2018-08-31T06:19:39.849Z,23.03
2018-08-31T06:22:07.810Z,30.03
2018-08-31T06:24:35.780Z,24.73
2018-08-31T06:27:03.667Z,39.83
2018-08-31T06:29:32.142Z,23.97
2018-08-31T06:32:00.036Z,23.17
2018-08-31T06:34:28.134Z,24.40
2018-08-31T06:36:56.179Z,21.47
2018-08-31T06:39:24.214Z,22.63
2018-08-31T06:41:52.278Z,20.07
2018-08-31T06:44:20.248Z,27.23
2018-08-31T06:46:48.434Z,22.77
2018-08-31T06:49:16.766Z,19.27
2018-08-31T06:51:44.700Z,20.33
2018-08-31T06:54:12.689Z,26.53
2018-08-31T06:56:40.771Z,21.47
2018-08-31T06:59:09.146Z,19.93
2018-08-31T07:01:37.036Z,16.70
2018-08-31T07:04:05.014Z,18.00
2018-08-31T07:06:38.203Z,21.47
2018-08-31T07:09:07.112Z,20.37
2018-08-31T07:11:35.416Z,17.27
2018-08-31T07:14:03.258Z,22.17
2018-08-31T07:16:31.151Z,17.63
2018-08-31T07:18:59.177Z,18.13
2018-08-31T07:21:27.409Z,17.67
2018-08-31T07:23:55.971Z,18.47
2018-08-31T07:26:24.284Z,22.23
2018-08-31T07:28:52.311Z,14.00
2018-08-31T07:31:20.501Z,14.77
2018-08-31T07:33:48.723Z,16.33
2018-08-31T07:36:16.621Z,16.63
2018-08-31T07:38:44.519Z,18.87
2018-08-31T07:41:12.579Z,17.40
2018-08-31T07:43:40.819Z,18.63
2018-08-31T07:46:09.783Z,21.10
2018-08-31T07:48:39.311Z,16.37
2018-08-31T07:51:07.169Z,18.30
2018-08-31T07:53:35.050Z,17.13
2018-08-31T07:56:02.991Z,23.27
2018-08-31T07:58:31.215Z,27.50
2018-08-31T08:00:59.077Z,19.03
2018-08-31T08:03:27.033Z,17.43
2018-08-31T08:05:55.056Z,19.93
2018-08-31T08:08:22.960Z,16.93
2018-08-31T08:10:50.840Z,15.83
2018-08-31T08:13:18.809Z,14.40
2018-08-31T08:15:46.641Z,17.27
2018-08-31T08:18:14.608Z,18.43
2018-08-31T08:20:42.474Z,16.47
2018-08-31T08:23:10.567Z,21.63
2018-08-31T08:25:38.865Z,17.03
2018-08-31T08:28:07.078Z,13.20
2018-08-31T08:30:36.528Z,15.17
2018-08-31T08:33:04.894Z,12.73
2018-08-31T08:35:33.172Z,12.80
2018-08-31T08:38:01.024Z,13.93
2018-08-31T08:40:28.966Z,15.93
2018-08-31T08:42:56.898Z,12.60
2018-08-31T08:45:24.788Z,15.10
2018-08-31T08:47:52.650Z,13.87
2018-08-31T08:50:20.624Z,14.80
2018-08-31T08:52:53.276Z,17.17
2018-08-31T08:55:38.664Z,16.87
2018-08-31T08:58:06.548Z,23.37
2018-08-31T09:00:34.389Z,14.63
2018-08-31T09:03:02.626Z,13.70
2018-08-31T09:05:30.781Z,13.07
2018-08-31T09:08:02.094Z,13.97
2018-08-31T09:10:31.767Z,13.23
2018-08-31T09:12:59.750Z,20.40
2018-08-31T09:15:27.632Z,14.93
2018-08-31T09:17:55.504Z,21.97
2018-08-31T09:20:23.516Z,22.63
2018-08-31T09:22:51.488Z,14.13
2018-08-31T09:25:19.359Z,16.73
2018-08-31T09:27:47.866Z,14.50
2018-08-31T09:30:21.230Z,18.77
2018-08-31T09:32:52.400Z,15.00
2018-08-31T09:35:20.406Z,18.27
2018-08-31T09:37:48.579Z,14.80
2018-08-31T09:40:16.986Z,11.80
2018-08-31T09:42:44.914Z,16.83
2018-08-31T09:45:12.894Z,16.73
2018-08-31T09:47:40.772Z,15.07
2018-08-31T09:50:10.332Z,15.53
2018-08-31T09:52:42.890Z,13.50
2018-08-31T09:55:14.608Z,16.33
2018-08-31T09:57:42.649Z,13.33
2018-08-31T10:00:10.676Z,16.50
2018-08-31T10:03:41.231Z,13.87
2018-08-31T10:06:09.092Z,13.33
2018-08-31T10:08:44.644Z,15.73
2018-08-31T10:11:12.603Z,19.00
2018-08-31T10:13:47.678Z,16.20
2018-08-31T10:16:15.559Z,15.80
2018-08-31T10:18:43.555Z,12.90
2018-08-31T10:21:11.429Z,12.30
2018-08-31T10:23:39.396Z,16.57
2018-08-31T10:26:07.374Z,14.77
2018-08-31T10:28:35.387Z,13.90
2018-08-31T10:31:03.830Z,13.97
2018-08-31T10:33:32.336Z,13.37
2018-08-31T10:36:01.246Z,16.70
2018-08-31T10:38:29.833Z,15.17
2018-08-31T10:40:57.729Z,14.80
2018-08-31T10:43:25.724Z,16.00
2018-08-31T10:45:53.580Z,16.87
2018-08-31T10:48:21.456Z,12.07
2018-08-31T10:50:49.479Z,16.10
2018-08-31T10:53:17.648Z,14.50
2018-08-31T10:55:45.634Z,17.67
2018-08-31T10:58:13.580Z,13.03
2018-08-31T11:00:41.454Z,14.63
2018-08-31T11:03:09.503Z,15.13
2018-08-31T11:05:38.136Z,14.10
2018-08-31T11:08:06.626Z,15.53
2018-08-31T11:10:34.690Z,19.20
2018-08-31T11:13:02.809Z,13.50
2018-08-31T11:15:31.682Z,14.97
2018-08-31T11:17:59.560Z,17.53
2018-08-31T11:20:27.430Z,13.60
2018-08-31T11:22:55.663Z,14.73
2018-08-31T11:25:24.476Z,14.03
2018-08-31T11:27:52.401Z,18.33
2018-08-31T11:30:21.131Z,18.77
2018-08-31T11:32:49.232Z,14.03
2018-08-31T11:35:17.143Z,16.03
2018-08-31T11:37:45.996Z,15.10
2018-08-31T11:40:14.643Z,14.27
2018-08-31T11:42:42.681Z,21.67
2018-08-31T11:45:10.557Z,14.83
2018-08-31T11:47:38.701Z,13.17
2018-08-31T11:50:06.715Z,12.70
2018-08-31T11:52:34.656Z,14.07
2018-08-31T11:55:02.667Z,18.97
2018-08-31T11:57:30.519Z,12.87
2018-08-31T11:59:58.549Z,20.33
2018-08-31T12:02:26.629Z,13.90
2018-08-31T12:04:54.454Z,14.73
2018-08-31T12:07:22.341Z,16.37
2018-08-31T12:09:50.246Z,14.77
2018-08-31T12:12:18.951Z,16.53
2018-08-31T12:14:49.883Z,15.73
2018-08-31T12:17:18.559Z,13.33
2018-08-31T12:19:46.479Z,26.57
2018-08-31T12:22:14.383Z,15.63
2018-08-31T12:24:42.446Z,15.53
2018-08-31T12:27:10.391Z,16.50
2018-08-31T12:29:38.406Z,13.57
2018-08-31T12:32:06.270Z,13.70
2018-08-31T12:34:35.195Z,18.87
2018-08-31T12:37:03.233Z,17.87
2018-08-31T12:39:31.527Z,15.63
2018-08-31T12:41:59.541Z,19.03
2018-08-31T12:44:27.427Z,18.73
2018-08-31T12:46:55.330Z,15.23
2018-08-31T12:49:23.176Z,13.17
2018-08-31T12:51:51.027Z,13.93
2018-08-31T12:54:21.325Z,13.37
2018-08-31T12:56:49.733Z,12.00
2018-08-31T12:59:17.643Z,12.70
2018-08-31T13:01:45.486Z,14.23
2018-08-31T13:04:13.360Z,13.00
2018-08-31T13:06:42.452Z,19.13
2018-08-31T13:09:10.496Z,11.50
2018-08-31T13:11:38.576Z,13.77
2018-08-31T13:14:06.500Z,15.23
2018-08-31T13:16:34.674Z,22.37
2018-08-31T13:19:03.930Z,12.90
2018-08-31T13:21:31.837Z,11.17
2018-08-31T13:23:59.770Z,10.67
2018-08-31T13:26:27.783Z,16.67
2018-08-31T13:28:55.737Z,13.10
2018-08-31T13:31:23.682Z,13.03
2018-08-31T13:33:51.527Z,13.63
2018-08-31T13:36:19.450Z,13.33
2018-08-31T13:38:47.931Z,15.53
2018-08-31T13:41:15.824Z,16.77
2018-08-31T13:43:43.714Z,20.67
2018-08-31T13:46:11.930Z,15.03
2018-08-31T13:48:40.259Z,13.13
2018-08-31T13:51:08.308Z,16.30
2018-08-31T13:53:36.195Z,16.03
2018-08-31T13:56:04.470Z,15.17
2018-08-31T13:58:32.508Z,15.23
2018-08-31T14:01:00.606Z,16.60
2018-08-31T14:03:28.631Z,12.93
2018-08-31T14:05:56.540Z,13.63
2018-08-31T14:08:24.387Z,14.20
2018-08-31T14:10:52.288Z,14.73
2018-08-31T14:13:20.327Z,12.67
2018-08-31T14:15:48.195Z,11.57
2018-08-31T14:18:17.589Z,18.23
2018-08-31T14:20:47.443Z,27.90
2018-08-31T14:23:15.307Z,17.10
2018-08-31T14:25:43.342Z,13.00
2018-08-31T14:28:11.207Z,13.27
2018-08-31T14:30:39.172Z,15.43
2018-08-31T14:33:07.189Z,14.97
2018-08-31T14:35:35.948Z,15.77
2018-08-31T14:38:04.864Z,15.33
2018-08-31T14:40:33.258Z,11.33
2018-08-31T14:43:01.660Z,14.60
2018-08-31T14:45:29.910Z,12.13
2018-08-31T14:47:57.829Z,15.33
2018-08-31T14:50:25.881Z,10.27
2018-08-31T14:52:53.746Z,11.33
2018-08-31T14:55:22.264Z,12.47
2018-08-31T14:57:50.246Z,14.23
2018-08-31T15:00:18.156Z,13.97
2018-08-31T15:02:46.850Z,12.63
2018-08-31T15:05:14.705Z,9.60
2018-08-31T15:07:42.636Z,12.67
2018-08-31T15:10:13.304Z,11.10
2018-08-31T15:12:41.485Z,10.90
2018-08-31T15:15:09.923Z,11.77
2018-08-31T15:17:37.789Z,10.33
2018-08-31T15:20:07.858Z,9.70
2018-08-31T15:22:36.470Z,13.50
2018-08-31T15:25:05.154Z,11.10
2018-08-31T15:27:33.028Z,9.33
2018-08-31T15:30:01.911Z,9.03
2018-08-31T15:32:29.778Z,13.13
2018-08-31T15:34:57.644Z,13.00
2018-08-31T15:37:25.692Z,8.60
2018-08-31T15:39:54.765Z,10.20
2018-08-31T15:42:22.679Z,9.43
2018-08-31T15:44:50.930Z,11.67
2018-08-31T15:47:19.920Z,11.57
2018-08-31T15:49:48.022Z,10.50
2018-08-31T15:52:16.172Z,11.43
2018-08-31T15:54:44.068Z,15.23
2018-08-31T15:57:12.718Z,10.87
2018-08-31T15:59:40.638Z,12.53
2018-08-31T16:02:08.969Z,10.87
2018-08-31T16:04:36.809Z,10.33
2018-08-31T16:07:05.101Z,13.43
2018-08-31T16:09:32.985Z,12.33
2018-08-31T16:12:00.876Z,10.83
2018-08-31T16:14:29.149Z,11.33
2018-08-31T16:16:57.049Z,10.43
2018-08-31T16:19:25.029Z,10.53
2018-08-31T16:21:53.433Z,13.93
2018-08-31T16:24:21.356Z,11.30
2018-08-31T16:26:49.255Z,10.90
2018-08-31T16:29:17.098Z,9.73
2018-08-31T16:31:45.176Z,14.53
2018-08-31T16:34:13.039Z,10.17
2018-08-31T16:36:40.918Z,11.03
2018-08-31T16:39:09.478Z,14.87
2018-08-31T16:41:37.529Z,10.50
2018-08-31T16:44:05.558Z,9.53
2018-08-31T16:46:34.407Z,10.70
2018-08-31T16:49:02.323Z,10.10
2018-08-31T16:51:30.917Z,12.20
2018-08-31T16:54:01.798Z,11.30
2018-08-31T16:56:29.778Z,13.00
2018-08-31T16:58:57.645Z,8.67
2018-08-31T17:01:25.612Z,12.83
2018-08-31T17:03:53.478Z,11.30
2018-08-31T17:06:21.512Z,8.57
2018-08-31T17:08:49.376Z,9.67
2018-08-31T17:11:17.268Z,12.97
2018-08-31T17:13:45.198Z,11.57
2018-08-31T17:16:13.060Z,15.00
2018-08-31T17:18:40.926Z,10.37
2018-08-31T17:21:09.047Z,8.30
2018-08-31T17:23:36.956Z,9.87
2018-08-31T17:26:04.834Z,12.43
2018-08-31T17:28:38.103Z,8.57
2018-08-31T17:31:11.400Z,11.87
2018-08-31T17:34:46.164Z,9.87
2018-08-31T17:37:19.486Z,7.07
2018-08-31T17:39:47.676Z,8.50
2018-08-31T17:42:15.531Z,7.53
2018-08-31T17:44:43.494Z,12.77
2018-08-31T17:47:11.425Z,10.77
2018-08-31T17:49:39.366Z,12.07
2018-08-31T17:52:07.469Z,8.30
2018-08-31T17:54:35.458Z,11.67
2018-08-31T17:57:03.413Z,9.53
2018-08-31T17:59:31.855Z,9.17
2018-08-31T18:01:59.905Z,10.27
2018-08-31T18:04:27.830Z,9.83
2018-08-31T18:06:55.686Z,9.20
2018-08-31T18:09:23.865Z,9.17
2018-08-31T18:11:52.167Z,10.60
2018-08-31T18:14:20.109Z,10.07
2018-08-31T18:16:48.529Z,7.87
2018-08-31T18:19:16.432Z,9.40
2018-08-31T18:21:44.664Z,11.10
2018-08-31T18:24:12.781Z,6.80
2018-08-31T18:26:40.686Z,9.57
2018-08-31T18:29:08.583Z,6.67
2018-08-31T18:31:37.011Z,6.87
2018-08-31T18:34:05.030Z,8.73
2018-08-31T18:36:34.162Z,10.03
2018-08-31T18:39:02.263Z,7.40
2018-08-31T18:41:30.180Z,8.83
2018-08-31T18:43:58.175Z,8.27
2018-08-31T18:46:26.749Z,6.33
2018-08-31T18:48:55.138Z,8.73
2018-08-31T18:51:23.008Z,5.70
2018-08-31T18:53:51.054Z,6.10
2018-08-31T18:56:18.916Z,9.23
2018-08-31T18:58:46.805Z,7.70
2018-08-31T19:01:15.529Z,8.80
2018-08-31T19:03:43.415Z,6.87
2018-08-31T19:06:11.616Z,7.33
2018-08-31T19:08:39.542Z,11.47
2018-08-31T19:11:07.530Z,8.80
2018-08-31T19:13:35.808Z,12.07
2018-08-31T19:16:03.851Z,9.30
2018-08-31T19:18:31.828Z,9.27
2018-08-31T19:20:59.974Z,8.13
2018-08-31T19:23:27.864Z,7.33
2018-08-31T19:25:55.755Z,10.27
2018-08-31T19:28:23.691Z,8.30
2018-08-31T19:30:51.599Z,8.17
2018-08-31T19:33:19.487Z,6.80
2018-08-31T19:35:47.437Z,8.33
2018-08-31T19:38:15.797Z,11.90
2018-08-31T19:40:43.766Z,9.87
2018-08-31T19:43:11.653Z,8.07
2018-08-31T19:45:39.551Z,16.43
2018-08-31T19:48:07.886Z,10.43
2018-08-31T19:50:35.848Z,9.43
2018-08-31T19:53:06.029Z,9.00
2018-08-31T19:55:42.102Z,7.50
2018-08-31T19:58:09.979Z,11.07
2018-08-31T20:00:37.946Z,8.60
2018-08-31T20:03:05.842Z,8.80
2018-08-31T20:05:33.815Z,10.67
2018-08-31T20:08:01.765Z,8.30
2018-08-31T20:10:29.679Z,8.27
2018-08-31T20:13:00.541Z,9.83
2018-08-31T20:15:31.532Z,9.40
2018-08-31T20:17:59.471Z,10.97
2018-08-31T20:20:27.450Z,9.43
2018-08-31T20:22:55.462Z,8.30
2018-08-31T20:25:23.453Z,10.97
2018-08-31T20:27:51.430Z,10.43
2018-08-31T20:30:19.428Z,9.33
2018-08-31T20:32:47.517Z,8.90
2018-08-31T20:35:15.422Z,10.03
2018-08-31T20:37:43.486Z,9.97
2018-08-31T20:40:11.620Z,9.23
2018-08-31T20:42:42.932Z,12.90
2018-08-31T20:45:16.057Z,9.37
2018-08-31T20:47:43.925Z,11.60
2018-08-31T20:50:14.355Z,8.80
2018-08-31T20:52:49.499Z,13.83
2018-08-31T20:55:17.435Z,12.30
2018-08-31T20:57:45.334Z,9.30
2018-08-31T21:00:13.367Z,10.73
2018-08-31T21:02:41.400Z,9.70
2018-08-31T21:05:09.325Z,11.03
2018-08-31T21:07:37.266Z,10.23
2018-08-31T21:10:05.388Z,7.70
2018-08-31T21:12:33.290Z,11.73
2018-08-31T21:15:01.178Z,7.63
2018-08-31T21:17:29.227Z,10.63
2018-08-31T21:19:57.074Z,7.53
2018-08-31T21:22:25.188Z,9.63
2018-08-31T21:24:53.081Z,8.73
2018-08-31T21:27:20.944Z,8.23
2018-08-31T21:30:02.749Z,8.80
2018-08-31T21:32:34.823Z,8.67
2018-08-31T21:35:05.866Z,10.97
2018-08-31T21:37:34.928Z,8.93
2018-08-31T21:40:02.804Z,8.17
2018-08-31T21:42:30.885Z,8.73
2018-08-31T21:44:58.807Z,9.47
2018-08-31T21:47:27.444Z,17.47
2018-08-31T21:49:55.726Z,6.80
2018-08-31T21:52:23.723Z,7.03
2018-08-31T21:54:51.653Z,9.67
2018-08-31T21:57:19.573Z,7.77
2018-08-31T21:59:47.524Z,7.37
2018-08-31T22:02:15.408Z,9.50
2018-08-31T22:04:43.382Z,6.67
2018-08-31T22:07:15.040Z,7.27
2018-08-31T22:09:44.714Z,6.43
2018-08-31T22:12:14.773Z,9.20
2018-08-31T22:14:52.466Z,8.30
2018-08-31T22:17:20.284Z,8.30
2018-08-31T22:19:48.839Z,7.23
2018-08-31T22:22:16.800Z,13.57
2018-08-31T22:24:45.295Z,16.50
2018-08-31T22:27:13.368Z,15.30
2018-08-31T22:29:41.538Z,10.57
2018-08-31T22:32:09.473Z,11.93
2018-08-31T22:34:37.949Z,9.40
2018-08-31T22:37:05.828Z,7.07
2018-08-31T22:39:33.767Z,9.43
2018-08-31T22:42:01.628Z,7.57
2018-08-31T22:44:33.321Z,8.73
2018-08-31T22:47:01.226Z,38.57
2018-08-31T22:49:29.204Z,34.83
2018-08-31T22:51:57.092Z,16.73
2018-08-31T22:54:25.156Z,9.70
2018-08-31T22:56:59.804Z,20.37
2018-08-31T22:59:27.878Z,25.60
2018-08-31T23:01:55.706Z,10.10
2018-08-31T23:04:23.591Z,7.90
2018-08-31T23:06:51.474Z,11.30
2018-08-31T23:09:19.316Z,10.70
2018-08-31T23:11:47.366Z,11.00
2018-08-31T23:14:15.258Z,8.30
2018-08-31T23:16:43.334Z,9.97
2018-08-31T23:19:11.355Z,7.63
2018-08-31T23:21:39.251Z,10.57
2018-08-31T23:24:07.202Z,6.70
2018-08-31T23:26:35.988Z,9.33
2018-08-31T23:29:03.857Z,9.80
2018-08-31T23:31:31.700Z,7.93
2018-08-31T23:33:59.585Z,7.27
2018-08-31T23:36:27.484Z,8.57
2018-08-31T23:38:55.532Z,8.60
2018-08-31T23:41:23.411Z,10.30
2018-08-31T23:43:51.261Z,10.30
2018-08-31T23:46:19.739Z,6.50
2018-08-31T23:48:47.630Z,7.53
2018-08-31T23:51:16.015Z,6.57
2018-08-31T23:53:43.874Z,13.53
2018-08-31T23:56:11.834Z,7.60
2018-08-31T23:58:39.710Z,7.63
